createdAt,value
2019-06-07T00:01:13.805Z,19.90
2019-06-07T00:03:42.361Z,20.00
2019-06-07T00:06:16.408Z,19.90
2019-06-07T00:08:41.393Z,19.90
2019-06-07T00:11:11.086Z,19.90
2019-06-07T00:13:41.101Z,20.00
2019-06-07T00:16:11.943Z,20.00
2019-06-07T00:18:39.941Z,19.90
2019-06-07T00:21:09.934Z,19.80
2019-06-07T00:23:38.604Z,19.90
2019-06-07T00:26:08.385Z,19.70
2019-06-07T00:28:37.152Z,19.70
2019-06-07T00:31:05.748Z,19.70
2019-06-07T00:33:34.359Z,19.60
2019-06-07T00:36:03.058Z,19.70
2019-06-07T00:38:31.624Z,19.70
2019-06-07T00:41:00.264Z,19.60
2019-06-07T00:43:28.986Z,19.60
2019-06-07T00:45:57.546Z,19.60
2019-06-07T00:48:32.000Z,19.60
2019-06-07T00:50:56.466Z,19.50
2019-06-07T00:53:31.655Z,19.40
2019-06-07T00:55:55.478Z,19.30
2019-06-07T00:58:27.489Z,19.20
2019-06-07T01:00:54.530Z,19.20
2019-06-07T01:03:25.681Z,19.20
2019-06-07T01:05:53.649Z,19.10
2019-06-07T01:08:27.707Z,19.10
2019-06-07T01:10:54.457Z,19.00
2019-06-07T01:13:26.483Z,18.90
2019-06-07T01:15:53.530Z,18.80
2019-06-07T01:18:43.584Z,18.90
2019-06-07T01:20:52.490Z,18.80
2019-06-07T01:23:59.825Z,18.80
2019-06-07T01:25:51.258Z,18.80
2019-06-07T01:28:21.391Z,18.90
2019-06-07T01:30:51.528Z,18.90
2019-06-07T01:33:20.796Z,19.00
2019-06-07T01:35:50.122Z,19.00
2019-06-07T01:38:21.935Z,19.00
2019-06-07T01:40:48.997Z,18.90
2019-06-07T01:43:19.566Z,18.80
2019-06-07T01:45:48.070Z,18.70
2019-06-07T01:48:19.814Z,18.70
2019-06-07T01:50:46.960Z,18.60
2019-06-07T01:53:15.531Z,18.70
2019-06-07T01:55:44.467Z,18.60
2019-06-07T01:58:13.198Z,18.60
2019-06-07T02:00:41.977Z,18.60
2019-06-07T02:03:10.577Z,18.50
2019-06-07T02:05:39.153Z,18.40
2019-06-07T02:08:07.918Z,18.50
2019-06-07T02:10:36.536Z,18.50
2019-06-07T02:13:05.269Z,18.40
2019-06-07T02:15:36.553Z,18.40
2019-06-07T02:18:04.110Z,18.40
2019-06-07T02:20:34.443Z,18.30
2019-06-07T02:23:03.411Z,18.30
2019-06-07T02:25:45.378Z,18.30
2019-06-07T02:28:26.420Z,18.30
2019-06-07T02:30:44.817Z,18.30
2019-06-07T02:33:02.901Z,18.20
2019-06-07T02:35:39.534Z,18.30
2019-06-07T02:38:01.819Z,18.20
2019-06-07T02:40:36.488Z,18.20
2019-06-07T02:43:00.966Z,18.30
2019-06-07T02:45:36.145Z,18.10
2019-06-07T02:47:59.934Z,18.00
2019-06-07T02:50:35.378Z,18.00
2019-06-07T02:52:58.882Z,18.20
2019-06-07T02:55:29.662Z,18.20
2019-06-07T02:57:57.761Z,18.10
2019-06-07T03:01:09.159Z,18.10
2019-06-07T03:03:22.389Z,18.20
2019-06-07T03:05:50.589Z,18.00
2019-06-07T03:08:19.283Z,18.00
2019-06-07T03:10:50.991Z,18.00
2019-06-07T03:13:21.346Z,18.10
2019-06-07T03:15:53.214Z,18.00
2019-06-07T03:18:41.669Z,18.10
2019-06-07T03:21:11.808Z,18.20
2019-06-07T03:23:41.060Z,18.10
2019-06-07T03:26:09.767Z,18.20
2019-06-07T03:28:39.584Z,18.20
2019-06-07T03:31:08.431Z,18.20
2019-06-07T03:33:42.697Z,18.20
2019-06-07T03:36:23.375Z,18.20
2019-06-07T03:38:39.953Z,18.20
2019-06-07T03:41:08.077Z,18.40
2019-06-07T03:43:40.450Z,18.40
2019-06-07T03:46:07.054Z,18.40
2019-06-07T03:48:39.065Z,18.40
2019-06-07T03:51:23.692Z,18.40
2019-06-07T03:53:37.287Z,18.40
2019-06-07T03:56:06.702Z,18.30
2019-06-07T03:58:47.989Z,18.40
2019-06-07T04:01:05.963Z,18.50
2019-06-07T04:03:43.585Z,18.60
2019-06-07T04:06:05.112Z,18.50
2019-06-07T04:08:38.352Z,18.70
2019-06-07T04:11:05.550Z,18.80
2019-06-07T04:13:37.575Z,18.80
2019-06-07T04:16:06.685Z,18.80
2019-06-07T04:18:36.448Z,18.80
2019-06-07T04:21:05.570Z,19.00
2019-06-07T04:23:37.601Z,19.00
2019-06-07T04:26:04.507Z,19.00
2019-06-07T04:29:25.957Z,19.10
2019-06-07T04:31:03.799Z,19.10
2019-06-07T04:33:37.051Z,19.30
2019-06-07T04:36:03.589Z,19.40
2019-06-07T04:38:39.232Z,19.50
2019-06-07T04:41:04.483Z,19.60
2019-06-07T04:43:35.503Z,19.60
2019-06-07T04:46:04.696Z,19.70
2019-06-07T04:48:36.008Z,19.80
2019-06-07T04:51:04.951Z,19.80
2019-06-07T04:53:35.256Z,20.00
2019-06-07T04:56:04.251Z,20.10
2019-06-07T04:58:33.363Z,19.90
2019-06-07T05:01:03.609Z,20.00
2019-06-07T05:03:37.113Z,19.90
2019-06-07T05:06:03.342Z,20.00
2019-06-07T05:08:35.147Z,19.90
2019-06-07T05:11:02.356Z,20.10
2019-06-07T05:13:35.319Z,20.10
2019-06-07T05:16:01.225Z,20.20
2019-06-07T05:18:29.803Z,20.30
2019-06-07T05:20:59.149Z,20.30
2019-06-07T05:24:04.823Z,20.50
2019-06-07T05:25:58.554Z,20.50
2019-06-07T05:28:27.219Z,20.70
2019-06-07T05:31:04.458Z,20.80
2019-06-07T05:33:25.995Z,20.80
2019-06-07T05:35:54.661Z,20.90
2019-06-07T05:38:23.266Z,20.90
2019-06-07T05:40:51.914Z,20.80
2019-06-07T05:43:25.675Z,20.90
2019-06-07T05:45:54.451Z,20.80
2019-06-07T05:48:23.214Z,20.70
2019-06-07T05:50:56.778Z,20.60
2019-06-07T05:53:22.307Z,20.50
2019-06-07T05:55:51.195Z,20.30
2019-06-07T05:58:19.858Z,20.40
2019-06-07T06:00:48.566Z,20.40
2019-06-07T06:03:17.378Z,20.30
2019-06-07T06:05:54.584Z,20.30
2019-06-07T06:08:16.286Z,20.00
2019-06-07T06:10:48.409Z,19.90
2019-06-07T06:13:15.323Z,19.90
2019-06-07T06:15:56.160Z,20.10
2019-06-07T06:18:14.214Z,20.20
2019-06-07T06:21:06.863Z,20.20
2019-06-07T06:23:13.226Z,20.00
2019-06-07T06:25:50.166Z,19.80
2019-06-07T06:28:13.184Z,19.60
2019-06-07T06:30:45.593Z,19.50
2019-06-07T06:33:30.662Z,19.70
2019-06-07T06:35:47.480Z,19.70
2019-06-07T06:38:13.844Z,19.70
2019-06-07T06:40:46.312Z,19.70
2019-06-07T06:43:12.814Z,19.80
2019-06-07T06:45:42.926Z,19.60
2019-06-07T06:48:11.774Z,19.90
2019-06-07T06:50:41.163Z,19.70
2019-06-07T06:53:10.290Z,19.70
2019-06-07T06:55:39.128Z,19.70
2019-06-07T06:58:07.724Z,19.70
2019-06-07T07:00:55.447Z,19.60
2019-06-07T07:03:56.741Z,19.50
2019-06-07T07:05:50.793Z,19.60
2019-06-07T07:08:17.812Z,19.40
2019-06-07T07:10:52.092Z,19.40
2019-06-07T07:13:17.208Z,19.50
2019-06-07T07:15:48.087Z,19.40
2019-06-07T07:18:16.147Z,19.60
2019-06-07T07:20:45.905Z,19.70
2019-06-07T07:23:15.142Z,19.70
2019-06-07T07:25:46.941Z,20.10
2019-06-07T07:28:14.328Z,19.80
2019-06-07T07:30:57.186Z,19.70
2019-06-07T07:33:26.113Z,19.50
2019-06-07T07:36:15.817Z,19.20
2019-06-07T07:38:25.251Z,19.00
2019-06-07T07:41:09.048Z,19.00
2019-06-07T07:43:24.882Z,19.10
2019-06-07T07:46:01.448Z,19.10
2019-06-07T07:48:23.926Z,19.10
2019-06-07T07:50:58.860Z,19.20
2019-06-07T07:53:22.833Z,19.10
2019-06-07T07:55:54.965Z,19.00
2019-06-07T07:58:21.719Z,19.10
2019-06-07T08:00:57.509Z,19.00
2019-06-07T08:03:20.831Z,18.80
2019-06-07T08:05:52.009Z,18.70
2019-06-07T08:08:21.929Z,18.70
2019-06-07T08:10:53.683Z,18.80
2019-06-07T08:13:25.985Z,18.50
2019-06-07T08:15:53.343Z,18.40
2019-06-07T08:18:21.587Z,18.30
2019-06-07T08:21:08.728Z,18.30
2019-06-07T08:23:20.511Z,18.00
2019-06-07T08:25:49.281Z,17.80
2019-06-07T08:28:17.958Z,17.80
2019-06-07T08:30:50.871Z,17.80
2019-06-07T08:33:25.856Z,17.70
2019-06-07T08:38:30.353Z,17.90
2019-06-07T08:40:54.578Z,17.90
2019-06-07T08:43:21.097Z,18.10
2019-06-07T08:45:53.172Z,18.30
2019-06-07T08:48:28.058Z,18.40
2019-06-07T08:50:54.259Z,18.30
2019-06-07T08:53:19.925Z,18.30
2019-06-07T08:55:48.575Z,18.30
2019-06-07T08:58:17.212Z,18.20
2019-06-07T09:00:47.435Z,18.50
2019-06-07T09:03:15.971Z,18.50
2019-06-07T09:05:45.264Z,18.80
2019-06-07T09:08:29.194Z,18.90
2019-06-07T09:10:44.082Z,19.10
2019-06-07T09:13:12.749Z,19.00
2019-06-07T09:15:41.370Z,19.30
2019-06-07T09:18:38.366Z,19.40
2019-06-07T09:20:48.537Z,19.80
2019-06-07T09:23:17.905Z,20.30
2019-06-07T09:25:57.168Z,19.80
2019-06-07T09:28:20.322Z,19.90
2019-06-07T09:30:47.818Z,20.30
2019-06-07T09:33:16.504Z,20.80
2019-06-07T09:35:45.249Z,20.90
2019-06-07T09:38:24.836Z,21.10
2019-06-07T09:40:44.554Z,21.10
2019-06-07T09:45:43.489Z,21.20
2019-06-07T09:48:16.268Z,20.80
2019-06-07T09:50:42.491Z,20.90
2019-06-07T09:53:21.941Z,20.70
2019-06-07T09:55:41.557Z,20.70
2019-06-07T09:58:49.243Z,20.50
2019-06-07T10:00:42.690Z,20.50
2019-06-07T10:03:20.484Z,20.10
2019-06-07T10:05:42.352Z,20.30
2019-06-07T10:08:41.457Z,20.70
2019-06-07T10:10:42.983Z,20.60
2019-06-07T10:13:11.528Z,20.70
2019-06-07T10:15:40.527Z,20.80
2019-06-07T10:18:09.415Z,21.20
2019-06-07T10:20:38.246Z,22.00
2019-06-07T10:23:08.066Z,22.20
2019-06-07T10:25:37.019Z,22.40
2019-06-07T10:28:06.133Z,22.30
2019-06-07T10:30:35.017Z,22.40
2019-06-07T10:33:04.910Z,22.40
2019-06-07T10:35:34.080Z,22.30
2019-06-07T10:38:02.667Z,22.50
2019-06-07T10:40:31.408Z,23.00
2019-06-07T10:43:01.167Z,23.50
2019-06-07T10:45:29.970Z,23.00
2019-06-07T10:47:58.574Z,22.90
2019-06-07T10:50:27.264Z,23.10
2019-06-07T10:52:55.910Z,23.50
2019-06-07T10:55:25.269Z,23.60
2019-06-07T10:57:53.907Z,23.50
2019-06-07T11:00:25.729Z,23.20
2019-06-07T11:02:55.312Z,23.30
2019-06-07T11:05:24.242Z,23.40
2019-06-07T11:07:52.984Z,23.20
2019-06-07T11:10:40.882Z,23.00
2019-06-07T11:13:21.674Z,23.20
2019-06-07T11:15:50.440Z,23.20
2019-06-07T11:18:19.164Z,22.90
2019-06-07T11:20:48.264Z,22.70
2019-06-07T11:23:16.809Z,22.90
2019-06-07T11:25:45.459Z,22.70
2019-06-07T11:28:14.681Z,23.00
2019-06-07T11:30:43.515Z,22.80
2019-06-07T11:33:15.793Z,22.70
2019-06-07T11:35:42.746Z,23.30
2019-06-07T11:38:12.585Z,23.20
2019-06-07T11:40:41.241Z,23.00
2019-06-07T11:43:10.755Z,23.30
2019-06-07T11:45:39.651Z,23.30
2019-06-07T11:48:09.079Z,23.20
2019-06-07T11:50:37.794Z,23.20
2019-06-07T11:53:06.561Z,23.50
2019-06-07T11:55:35.222Z,23.60
2019-06-07T11:58:04.027Z,23.00
2019-06-07T12:00:34.456Z,22.80
2019-06-07T12:03:03.672Z,22.50
2019-06-07T12:05:32.301Z,22.50
2019-06-07T12:08:01.033Z,23.60
2019-06-07T12:10:41.818Z,24.60
2019-06-07T12:13:02.546Z,25.10
2019-06-07T12:15:31.219Z,24.90
2019-06-07T12:17:59.933Z,25.00
2019-06-07T12:20:28.604Z,25.20
2019-06-07T12:22:57.137Z,25.50
2019-06-07T12:25:25.768Z,26.00
2019-06-07T12:27:54.389Z,27.10
2019-06-07T12:30:27.662Z,28.90
2019-06-07T12:32:53.378Z,28.70
2019-06-07T12:35:21.957Z,28.90
2019-06-07T12:37:50.509Z,28.10
2019-06-07T12:40:30.282Z,28.00
2019-06-07T12:42:49.689Z,28.00
2019-06-07T12:45:42.415Z,28.30
2019-06-07T12:47:48.734Z,28.10
2019-06-07T12:50:17.546Z,27.70
2019-06-07T12:52:46.103Z,27.80
2019-06-07T12:55:16.051Z,27.70
2019-06-07T12:57:45.156Z,27.20
2019-06-07T13:00:14.453Z,27.80
2019-06-07T13:02:43.085Z,27.60
2019-06-07T13:05:12.023Z,26.50
2019-06-07T13:07:40.802Z,26.00
2019-06-07T13:10:10.040Z,25.50
2019-06-07T13:12:38.859Z,25.20
2019-06-07T13:15:07.997Z,26.40
2019-06-07T13:17:37.663Z,27.80
2019-06-07T13:20:09.563Z,28.30
2019-06-07T13:22:38.192Z,29.00
2019-06-07T13:25:07.613Z,30.40
2019-06-07T13:27:36.483Z,28.40
2019-06-07T13:30:11.375Z,26.80
2019-06-07T13:32:39.730Z,26.10
2019-06-07T13:35:09.518Z,25.50
2019-06-07T13:37:38.182Z,24.90
2019-06-07T13:40:07.678Z,24.60
2019-06-07T13:42:36.418Z,24.40
2019-06-07T13:45:07.125Z,24.50
2019-06-07T13:47:35.888Z,25.50
2019-06-07T13:50:09.296Z,26.80
2019-06-07T13:52:37.910Z,26.80
2019-06-07T13:55:07.334Z,27.20
2019-06-07T13:57:36.196Z,26.90
2019-06-07T14:00:11.659Z,25.90
2019-06-07T14:02:40.480Z,24.80
2019-06-07T14:05:09.681Z,25.70
2019-06-07T14:07:38.255Z,26.30
2019-06-07T14:10:11.165Z,26.60
2019-06-07T14:12:37.749Z,28.20
2019-06-07T14:15:07.369Z,28.50
2019-06-07T14:17:35.993Z,29.00
2019-06-07T14:20:10.160Z,29.20
2019-06-07T14:22:39.343Z,30.30
2019-06-07T14:25:09.549Z,29.70
2019-06-07T14:27:38.216Z,29.30
2019-06-07T14:30:10.967Z,29.00
2019-06-07T14:32:39.582Z,29.20
2019-06-07T14:35:08.838Z,28.40
2019-06-07T14:37:37.600Z,27.70
2019-06-07T14:40:08.791Z,27.20
2019-06-07T14:42:37.500Z,27.30
2019-06-07T14:45:07.046Z,26.60
2019-06-07T14:47:35.695Z,26.80
2019-06-07T14:50:06.064Z,27.10
2019-06-07T14:52:35.134Z,26.30
2019-06-07T14:55:08.452Z,25.00
2019-06-07T14:57:37.872Z,24.50
2019-06-07T15:00:11.212Z,24.20
2019-06-07T15:02:40.584Z,23.80
2019-06-07T15:05:09.674Z,24.10
2019-06-07T15:07:40.554Z,25.00
2019-06-07T15:10:09.473Z,25.90
2019-06-07T15:12:39.626Z,26.70
2019-06-07T15:15:09.477Z,26.40
2019-06-07T15:17:39.240Z,25.90
2019-06-07T15:20:09.290Z,25.50
2019-06-07T15:22:38.743Z,25.60
2019-06-07T15:25:08.143Z,25.90
2019-06-07T15:27:37.731Z,25.80
2019-06-07T15:30:11.314Z,26.90
2019-06-07T15:32:41.562Z,27.10
2019-06-07T15:35:10.373Z,27.30
2019-06-07T15:37:39.457Z,27.50
2019-06-07T15:40:10.108Z,27.50
2019-06-07T15:42:50.026Z,28.10
2019-06-07T15:45:09.530Z,28.30
2019-06-07T15:47:38.552Z,27.20
2019-06-07T15:50:09.045Z,26.80
2019-06-07T15:52:38.252Z,26.40
2019-06-07T15:55:08.810Z,25.20
2019-06-07T15:57:37.492Z,24.80
2019-06-07T16:00:11.135Z,24.80
2019-06-07T16:02:39.853Z,24.60
2019-06-07T16:05:09.573Z,24.40
2019-06-07T16:07:38.358Z,25.30
2019-06-07T16:10:08.655Z,26.30
2019-06-07T16:12:37.228Z,28.00
2019-06-07T16:15:08.268Z,28.50
2019-06-07T16:17:37.578Z,29.20
2019-06-07T16:20:07.261Z,28.60
2019-06-07T16:22:35.987Z,29.00
2019-06-07T16:25:06.739Z,30.00
2019-06-07T16:27:36.756Z,29.40
2019-06-07T16:30:09.261Z,28.20
2019-06-07T16:32:39.330Z,28.30
2019-06-07T16:35:09.254Z,28.10
2019-06-07T16:37:40.481Z,28.10
2019-06-07T16:40:11.279Z,28.10
2019-06-07T16:42:40.596Z,28.00
2019-06-07T16:45:11.177Z,27.50
2019-06-07T16:47:42.374Z,27.70
2019-06-07T16:50:12.251Z,27.50
2019-06-07T16:52:41.908Z,28.20
2019-06-07T16:55:11.629Z,28.40
2019-06-07T16:57:40.977Z,28.80
2019-06-07T17:00:12.715Z,28.70
2019-06-07T17:02:42.258Z,28.90
2019-06-07T17:05:11.802Z,28.00
2019-06-07T17:07:41.939Z,28.20
2019-06-07T17:10:11.690Z,28.50
2019-06-07T17:12:40.730Z,28.90
2019-06-07T17:15:11.551Z,29.00
2019-06-07T17:17:41.028Z,28.60
2019-06-07T17:20:10.536Z,28.20
2019-06-07T17:22:39.243Z,29.20
2019-06-07T17:25:08.435Z,28.70
2019-06-07T17:27:37.145Z,28.10
2019-06-07T17:30:11.033Z,27.50
2019-06-07T17:32:50.567Z,27.40
2019-06-07T17:35:10.295Z,27.00
2019-06-07T17:37:41.619Z,26.60
2019-06-07T17:40:10.077Z,26.90
2019-06-07T17:42:38.780Z,26.90
2019-06-07T17:45:12.328Z,26.60
2019-06-07T17:47:41.635Z,26.50
2019-06-07T17:50:12.295Z,26.00
2019-06-07T17:52:41.747Z,25.60
2019-06-07T17:55:11.006Z,25.30
2019-06-07T17:57:39.655Z,25.70
2019-06-07T18:02:42.659Z,26.40
2019-06-07T18:05:11.958Z,26.00
2019-06-07T18:07:40.934Z,25.60
2019-06-07T18:10:11.207Z,25.30
2019-06-07T18:12:39.980Z,25.00
2019-06-07T18:15:10.745Z,24.60
2019-06-07T18:17:39.531Z,24.30
2019-06-07T18:20:10.218Z,23.90
2019-06-07T18:22:39.030Z,23.80
2019-06-07T18:25:08.390Z,23.90
2019-06-07T18:27:37.169Z,24.00
2019-06-07T18:30:11.571Z,23.90
2019-06-07T18:32:40.121Z,23.70
2019-06-07T18:35:28.093Z,23.60
2019-06-07T18:37:56.675Z,23.60
2019-06-07T18:40:25.471Z,23.60
2019-06-07T18:42:55.264Z,23.50
2019-06-07T18:45:23.985Z,23.60
2019-06-07T18:47:53.700Z,23.60
2019-06-07T18:50:24.621Z,23.60
2019-06-07T18:52:54.887Z,23.50
2019-06-07T18:55:23.438Z,23.40
2019-06-07T18:57:52.225Z,23.50
2019-06-07T19:00:23.293Z,23.50
2019-06-07T19:02:53.875Z,23.30
2019-06-07T19:05:23.448Z,23.30
2019-06-07T19:07:52.520Z,23.20
2019-06-07T19:10:23.893Z,22.80
2019-06-07T19:12:53.093Z,22.60
2019-06-07T19:15:22.947Z,22.40
2019-06-07T19:17:52.111Z,22.40
2019-06-07T19:20:21.880Z,22.20
2019-06-07T19:22:52.064Z,22.00
2019-06-07T19:25:20.873Z,21.80
2019-06-07T19:27:50.620Z,21.70
2019-06-07T19:30:20.920Z,21.70
2019-06-07T19:32:51.220Z,21.50
2019-06-07T19:35:20.089Z,21.40
2019-06-07T19:37:48.700Z,21.30
2019-06-07T19:40:17.491Z,21.20
2019-06-07T19:42:46.185Z,21.00
2019-06-07T19:45:31.655Z,20.90
2019-06-07T19:47:45.527Z,20.90
2019-06-07T19:50:14.746Z,20.80
2019-06-07T19:52:43.302Z,20.70
2019-06-07T19:55:12.527Z,20.60
2019-06-07T19:57:42.018Z,20.50
2019-06-07T20:00:14.410Z,20.40
2019-06-07T20:02:41.935Z,20.30
2019-06-07T20:05:13.123Z,20.20
2019-06-07T20:07:42.438Z,20.20
2019-06-07T20:10:12.634Z,20.10
2019-06-07T20:12:41.370Z,19.90
2019-06-07T20:15:27.207Z,19.90
2019-06-07T20:17:40.988Z,19.90
2019-06-07T20:20:10.317Z,19.70
2019-06-07T20:22:38.878Z,19.60
2019-06-07T20:25:09.277Z,19.50
2019-06-07T20:27:38.137Z,19.50
2019-06-07T20:30:09.704Z,19.40
2019-06-07T20:32:38.445Z,19.50
2019-06-07T20:35:08.401Z,19.40
2019-06-07T20:37:37.168Z,19.40
2019-06-07T20:40:22.855Z,19.30
2019-06-07T20:42:39.788Z,19.20
2019-06-07T20:45:08.829Z,19.20
2019-06-07T20:47:37.532Z,19.20
2019-06-07T20:50:08.653Z,19.20
2019-06-07T20:52:38.134Z,19.20
2019-06-07T20:55:09.415Z,19.20
2019-06-07T20:57:39.262Z,19.30
2019-06-07T21:00:16.687Z,19.20
2019-06-07T21:02:40.602Z,19.10
2019-06-07T21:05:09.918Z,19.20
2019-06-07T21:07:38.913Z,19.00
2019-06-07T21:10:08.532Z,19.00
2019-06-07T21:12:37.657Z,18.90
2019-06-07T21:15:14.099Z,18.90
2019-06-07T21:17:40.606Z,18.90
2019-06-07T21:20:13.984Z,18.70
2019-06-07T21:22:40.501Z,18.80
2019-06-07T21:25:11.273Z,18.80
2019-06-07T21:27:40.237Z,18.80
2019-06-07T21:30:09.748Z,18.80
2019-06-07T21:32:38.561Z,18.60
2019-06-07T21:35:08.064Z,18.70
2019-06-07T21:37:36.803Z,18.50
2019-06-07T21:40:06.189Z,18.70
2019-06-07T21:42:34.809Z,18.70
2019-06-07T21:45:06.287Z,18.70
2019-06-07T21:47:34.887Z,18.50
2019-06-07T21:50:04.972Z,18.40
2019-06-07T21:52:33.852Z,18.40
2019-06-07T21:55:02.823Z,18.40
2019-06-07T21:57:32.102Z,18.50
2019-06-07T22:00:00.679Z,18.40
2019-06-07T22:02:29.465Z,18.30
2019-06-07T22:04:58.101Z,18.40
2019-06-07T22:07:26.821Z,18.30
2019-06-07T22:09:55.381Z,18.10
2019-06-07T22:12:23.951Z,18.00
2019-06-07T22:14:52.575Z,17.90
2019-06-07T22:17:21.161Z,17.80
2019-06-07T22:19:50.270Z,17.90
2019-06-07T22:22:18.890Z,17.90
2019-06-07T22:24:47.590Z,18.00
2019-06-07T22:27:17.601Z,17.90
2019-06-07T22:29:46.275Z,17.90
2019-06-07T22:32:15.046Z,18.00
2019-06-07T22:34:43.643Z,18.00
2019-06-07T22:37:14.720Z,18.00
2019-06-07T22:39:42.532Z,18.00
2019-06-07T22:42:11.967Z,18.00
2019-06-07T22:44:41.727Z,17.90
2019-06-07T22:47:10.404Z,17.90
2019-06-07T22:49:39.021Z,17.80
2019-06-07T22:52:09.315Z,18.00
2019-06-07T22:54:37.957Z,18.00
2019-06-07T22:57:14.189Z,18.10
2019-06-07T22:59:42.766Z,18.00
2019-06-07T23:02:12.542Z,17.90
2019-06-07T23:04:41.297Z,17.80
2019-06-07T23:07:10.800Z,17.80
2019-06-07T23:09:39.571Z,17.80
2019-06-07T23:12:09.127Z,17.80
2019-06-07T23:14:37.744Z,17.80
2019-06-07T23:17:06.328Z,17.80
2019-06-07T23:19:34.900Z,17.80
2019-06-07T23:22:03.610Z,17.80
2019-06-07T23:24:32.268Z,17.70
2019-06-07T23:27:00.939Z,17.50
2019-06-07T23:29:29.510Z,17.50
2019-06-07T23:31:58.160Z,17.30
2019-06-07T23:34:26.748Z,17.10
2019-06-07T23:36:55.303Z,17.10
2019-06-07T23:39:23.886Z,17.00
2019-06-07T23:41:52.471Z,16.90
2019-06-07T23:44:21.487Z,17.00
2019-06-07T23:46:50.333Z,16.90
2019-06-07T23:49:19.608Z,16.70
2019-06-07T23:51:48.185Z,16.70
2019-06-07T23:54:17.838Z,16.80
2019-06-07T23:56:46.485Z,16.80
2019-06-07T23:59:16.106Z,16.80
